AAL1546 KMIA-TGPY
Flight info
| Callsign | AAL1546 |
|---|---|
| Flight time | N/A |
| Altitude | 33000 |
| Route | KLADA2 BITAC Y290 HAGIT/N0455F350 Y421 HARBG L452 MUNOZ DCT GEECE |
| Aircraft | A321/M-SDE3FGHIRWY/LB1 |
Departure
| Time | 2026-04-30 18:37 |
|---|---|
| Airport | Miami International Airport (KMIA) |
Arrival
| Time | N/A |
|---|---|
| Airport | Maurice Bishop International Airport (TGPY) |
| Time | Latitude | Longitude | Altitude | Speed | Heading |
|---|---|---|---|---|---|
| 2026-04-30 18:13 | 25.79571 | -80.28474 | 24 ft | 0 kts | 119° |
| 2026-04-30 18:15 | 25.79719 | -80.28490 | 22 ft | 0 kts | 4° |
| 2026-04-30 18:26 | 25.79701 | -80.28492 | 23 ft | 4 kts | 360° |
| 2026-04-30 18:26 | 25.79677 | -80.28486 | 23 ft | 4 kts | 313° |
| 2026-04-30 18:27 | 25.79668 | -80.28462 | 21 ft | 0 kts | 267° |
| 2026-04-30 18:27 | 25.79668 | -80.28461 | 21 ft | 0 kts | 267° |
| 2026-04-30 18:29 | 25.79668 | -80.28466 | 21 ft | 2 kts | 267° |
| 2026-04-30 18:29 | 25.79650 | -80.28630 | 22 ft | 10 kts | 268° |
| 2026-04-30 18:30 | 25.79642 | -80.28768 | 23 ft | 9 kts | 277° |
| 2026-04-30 18:30 | 25.79743 | -80.28814 | 24 ft | 9 kts | 356° |
| 2026-04-30 18:31 | 25.79802 | -80.28818 | 24 ft | 9 kts | 357° |
| 2026-04-30 18:31 | 25.79924 | -80.28824 | 29 ft | 9 kts | 357° |
| 2026-04-30 18:32 | 25.80012 | -80.28908 | 25 ft | 12 kts | 266° |
| 2026-04-30 18:32 | 25.80007 | -80.29007 | 24 ft | 13 kts | 267° |
| 2026-04-30 18:32 | 25.80000 | -80.29204 | 26 ft | 12 kts | 267° |
| 2026-04-30 18:33 | 25.79995 | -80.29306 | 24 ft | 14 kts | 267° |
| 2026-04-30 18:33 | 25.79985 | -80.29569 | 17 ft | 18 kts | 268° |
| 2026-04-30 18:33 | 25.79979 | -80.29702 | 18 ft | 16 kts | 267° |
| 2026-04-30 18:34 | 25.79973 | -80.29821 | 17 ft | 16 kts | 267° |
| 2026-04-30 18:34 | 25.79975 | -80.29949 | 15 ft | 0 kts | 282° |
| 2026-04-30 18:34 | 25.79976 | -80.29954 | 15 ft | 4 kts | 282° |
| 2026-04-30 18:35 | 25.79990 | -80.30016 | 16 ft | 12 kts | 286° |
| 2026-04-30 18:35 | 25.80019 | -80.30106 | 19 ft | 10 kts | 303° |
| 2026-04-30 18:35 | 25.80068 | -80.30118 | 19 ft | 8 kts | 36° |
| 2026-04-30 18:36 | 25.80073 | -80.30080 | 17 ft | 0 kts | 89° |
| 2026-04-30 18:36 | 25.80079 | -80.29921 | 16 ft | 55 kts | 88° |
| 2026-04-30 18:37 | 25.80108 | -80.29257 | 26 ft | 116 kts | 87° |
| 2026-04-30 18:37 | 25.80152 | -80.28170 | 19 ft | 165 kts | 87° |
| 2026-04-30 18:37 | 25.80203 | -80.26820 | 432 ft | 172 kts | 87° |
| 2026-04-30 18:37 | 25.80121 | -80.25540 | 1141 ft | 164 kts | 110° |
| 2026-04-30 18:38 | 25.79662 | -80.24389 | 1722 ft | 164 kts | 118° |
| 2026-04-30 18:38 | 25.79136 | -80.23212 | 1999 ft | 178 kts | 119° |
| 2026-04-30 18:38 | 25.78554 | -80.21925 | 2144 ft | 196 kts | 120° |
| 2026-04-30 18:38 | 25.77916 | -80.20510 | 2258 ft | 215 kts | 119° |
| 2026-04-30 18:39 | 25.77202 | -80.18936 | 2417 ft | 240 kts | 118° |
| 2026-04-30 18:39 | 25.76410 | -80.17210 | 2660 ft | 260 kts | 118° |
| 2026-04-30 18:39 | 25.75541 | -80.15420 | 3164 ft | 266 kts | 121° |
| 2026-04-30 18:39 | 25.74643 | -80.13611 | 3769 ft | 270 kts | 120° |
| 2026-04-30 18:40 | 25.73729 | -80.11788 | 4401 ft | 272 kts | 121° |
| 2026-04-30 18:40 | 25.72941 | -80.09858 | 4998 ft | 277 kts | 114° |
| 2026-04-30 18:40 | 25.72253 | -80.07847 | 5581 ft | 281 kts | 111° |
| 2026-04-30 18:40 | 25.71581 | -80.05797 | 6162 ft | 286 kts | 111° |
| 2026-04-30 18:41 | 25.70906 | -80.03712 | 6743 ft | 289 kts | 111° |
| 2026-04-30 18:41 | 25.70220 | -80.01602 | 7267 ft | 292 kts | 111° |
| 2026-04-30 18:41 | 25.69520 | -79.99467 | 7815 ft | 296 kts | 110° |
| 2026-04-30 18:41 | 25.68812 | -79.97311 | 8352 ft | 300 kts | 110° |
| 2026-04-30 18:42 | 25.68092 | -79.95129 | 8895 ft | 303 kts | 110° |
| 2026-04-30 18:42 | 25.66621 | -79.90692 | 9957 ft | 310 kts | 110° |
| 2026-04-30 18:42 | 25.65863 | -79.88410 | 10228 ft | 324 kts | 110° |
| 2026-04-30 18:45 | 25.56666 | -79.61491 | 13991 ft | 397 kts | 111° |
| 2026-04-30 18:45 | 25.55609 | -79.58656 | 14457 ft | 399 kts | 111° |
| 2026-04-30 18:45 | 25.54550 | -79.55803 | 14944 ft | 401 kts | 111° |
| 2026-04-30 18:46 | 25.53491 | -79.52938 | 15425 ft | 403 kts | 111° |
| 2026-04-30 18:46 | 25.52430 | -79.50057 | 15904 ft | 405 kts | 111° |
| 2026-04-30 18:46 | 25.51368 | -79.47158 | 16390 ft | 407 kts | 111° |
| 2026-04-30 18:46 | 25.50304 | -79.44247 | 16888 ft | 409 kts | 111° |
| 2026-04-30 18:47 | 25.49233 | -79.41318 | 17333 ft | 412 kts | 111° |
| 2026-04-30 18:47 | 25.48150 | -79.38365 | 17754 ft | 415 kts | 111° |
| 2026-04-30 18:47 | 25.47056 | -79.35393 | 18215 ft | 418 kts | 112° |
| 2026-04-30 18:47 | 25.45956 | -79.32408 | 18614 ft | 420 kts | 112° |
| 2026-04-30 18:48 | 25.44851 | -79.29406 | 19018 ft | 422 kts | 112° |
| 2026-04-30 18:48 | 25.43741 | -79.26390 | 19417 ft | 424 kts | 112° |
| 2026-04-30 18:48 | 25.42626 | -79.23362 | 19816 ft | 426 kts | 112° |
| 2026-04-30 18:48 | 25.41503 | -79.20319 | 20214 ft | 428 kts | 112° |
| 2026-04-30 18:49 | 25.40375 | -79.17264 | 20603 ft | 430 kts | 112° |
| 2026-04-30 18:49 | 25.39239 | -79.14196 | 20973 ft | 432 kts | 112° |
| 2026-04-30 18:49 | 25.38098 | -79.11111 | 21342 ft | 434 kts | 112° |
| 2026-04-30 18:49 | 25.36956 | -79.08016 | 21697 ft | 436 kts | 112° |
| 2026-04-30 18:50 | 25.35805 | -79.04904 | 22041 ft | 438 kts | 112° |
| 2026-04-30 18:50 | 25.34650 | -79.01779 | 22379 ft | 440 kts | 112° |
| 2026-04-30 18:50 | 25.33489 | -78.98643 | 22708 ft | 442 kts | 112° |
| 2026-04-30 18:50 | 25.32324 | -78.95499 | 23032 ft | 443 kts | 112° |
| 2026-04-30 18:51 | 25.31151 | -78.92340 | 23355 ft | 445 kts | 112° |
| 2026-04-30 18:51 | 25.29974 | -78.89174 | 23647 ft | 447 kts | 112° |
| 2026-04-30 18:51 | 25.28791 | -78.85994 | 23896 ft | 448 kts | 112° |
| 2026-04-30 18:51 | 25.27601 | -78.82800 | 24153 ft | 450 kts | 112° |
| 2026-04-30 18:52 | 25.26407 | -78.79598 | 24401 ft | 452 kts | 112° |
| 2026-04-30 18:52 | 25.25207 | -78.76382 | 24652 ft | 454 kts | 112° |
| 2026-04-30 18:52 | 25.23999 | -78.73152 | 24897 ft | 456 kts | 112° |
| 2026-04-30 18:52 | 25.22785 | -78.69910 | 25137 ft | 458 kts | 112° |
| 2026-04-30 18:53 | 25.21569 | -78.66659 | 25381 ft | 459 kts | 112° |
| 2026-04-30 18:53 | 25.20348 | -78.63391 | 25623 ft | 461 kts | 112° |
| 2026-04-30 18:53 | 25.19123 | -78.60106 | 25869 ft | 463 kts | 112° |
| 2026-04-30 18:53 | 25.17892 | -78.56815 | 26115 ft | 465 kts | 112° |
| 2026-04-30 18:54 | 25.16615 | -78.53533 | 26361 ft | 467 kts | 114° |
| 2026-04-30 18:54 | 25.15739 | -78.51359 | 26529 ft | 468 kts | 114° |
| 2026-04-30 18:54 | 25.13945 | -78.47029 | 26852 ft | 470 kts | 115° |
| 2026-04-30 18:54 | 25.12566 | -78.43751 | 27095 ft | 472 kts | 115° |
| 2026-04-30 18:55 | 25.11185 | -78.40463 | 27338 ft | 473 kts | 114° |
| 2026-04-30 18:55 | 25.08877 | -78.34913 | 27733 ft | 476 kts | 114° |
| 2026-04-30 18:55 | 25.07503 | -78.31581 | 27965 ft | 478 kts | 114° |
| 2026-04-30 18:56 | 25.04963 | -78.25373 | 28374 ft | 481 kts | 114° |
| 2026-04-30 18:56 | 25.03585 | -78.22006 | 28592 ft | 483 kts | 114° |
| 2026-04-30 18:56 | 25.02196 | -78.18630 | 28813 ft | 484 kts | 114° |
| 2026-04-30 18:57 | 24.99393 | -78.11853 | 29261 ft | 488 kts | 114° |
| 2026-04-30 18:57 | 24.97982 | -78.08447 | 29499 ft | 489 kts | 114° |
| 2026-04-30 18:57 | 24.96566 | -78.05028 | 29733 ft | 491 kts | 114° |
| 2026-04-30 18:58 | 24.93734 | -77.98192 | 30332 ft | 489 kts | 114° |
| 2026-04-30 18:58 | 24.92323 | -77.94784 | 30608 ft | 489 kts | 114° |
| 2026-04-30 18:58 | 24.90910 | -77.91371 | 30811 ft | 491 kts | 114° |
| 2026-04-30 18:59 | 24.88071 | -77.84535 | 31297 ft | 491 kts | 114° |
| 2026-04-30 19:00 | 24.83812 | -77.74302 | 32094 ft | 489 kts | 113° |
| 2026-04-30 19:00 | 24.82392 | -77.70896 | 32348 ft | 489 kts | 113° |
| 2026-04-30 19:00 | 24.79548 | -77.64090 | 32808 ft | 489 kts | 113° |
| 2026-04-30 19:01 | 24.76707 | -77.57302 | 32995 ft | 486 kts | 113° |
| 2026-04-30 19:02 | 24.72353 | -77.47261 | 32981 ft | 484 kts | 115° |
| 2026-04-30 19:03 | 24.66214 | -77.34070 | 32978 ft | 484 kts | 115° |
| 2026-04-30 19:04 | 24.60176 | -77.20880 | 32994 ft | 485 kts | 115° |
| 2026-04-30 19:05 | 24.54102 | -77.07619 | 32988 ft | 487 kts | 115° |
| 2026-04-30 19:06 | 24.47977 | -76.94354 | 32993 ft | 487 kts | 115° |
| 2026-04-30 19:06 | 24.43385 | -76.84401 | 33004 ft | 487 kts | 115° |
| 2026-04-30 19:07 | 24.38788 | -76.74475 | 32994 ft | 486 kts | 115° |
| 2026-04-30 19:08 | 24.32648 | -76.61274 | 32996 ft | 486 kts | 115° |
| 2026-04-30 19:09 | 24.28048 | -76.51386 | 32996 ft | 485 kts | 115° |
| 2026-04-30 19:09 | 24.24979 | -76.44789 | 33000 ft | 486 kts | 115° |
| 2026-04-30 19:10 | 24.18819 | -76.31598 | 32990 ft | 487 kts | 115° |
| 2026-04-30 19:11 | 24.14179 | -76.21706 | 32994 ft | 487 kts | 115° |
| 2026-04-30 19:12 | 24.11088 | -76.15108 | 32991 ft | 487 kts | 115° |
| 2026-04-30 19:12 | 24.07995 | -76.08511 | 32993 ft | 487 kts | 115° |
| 2026-04-30 19:13 | 24.01806 | -75.95361 | 32991 ft | 488 kts | 115° |
| 2026-04-30 19:14 | 23.98687 | -75.88764 | 32993 ft | 488 kts | 115° |
| 2026-04-30 19:14 | 23.95571 | -75.82171 | 32993 ft | 488 kts | 115° |
| 2026-04-30 19:15 | 23.92461 | -75.75585 | 33013 ft | 490 kts | 115° |
| 2026-04-30 19:15 | 23.89313 | -75.68929 | 33314 ft | 494 kts | 115° |
| 2026-04-30 19:15 | 23.87727 | -75.65594 | 33520 ft | 495 kts | 115° |
| 2026-04-30 19:16 | 23.86144 | -75.62261 | 33719 ft | 495 kts | 115° |
| 2026-04-30 19:16 | 23.84557 | -75.58918 | 33921 ft | 496 kts | 115° |
| 2026-04-30 19:16 | 23.81377 | -75.52227 | 34307 ft | 496 kts | 115° |
| 2026-04-30 19:17 | 23.79784 | -75.48889 | 34528 ft | 495 kts | 115° |
| 2026-04-30 19:17 | 23.76615 | -75.42230 | 34931 ft | 494 kts | 116° |
| 2026-04-30 19:17 | 23.75029 | -75.38904 | 34978 ft | 494 kts | 116° |
| 2026-04-30 19:18 | 23.70271 | -75.28942 | 34980 ft | 493 kts | 116° |
| 2026-04-30 19:19 | 23.67103 | -75.22310 | 34980 ft | 493 kts | 116° |
| 2026-04-30 19:19 | 23.62378 | -75.12463 | 34981 ft | 489 kts | 116° |
| 2026-04-30 19:20 | 23.59221 | -75.05894 | 34990 ft | 489 kts | 116° |
| 2026-04-30 19:21 | 23.54498 | -74.96057 | 35009 ft | 488 kts | 116° |
| 2026-04-30 19:22 | 23.48197 | -74.82990 | 35000 ft | 487 kts | 116° |
| 2026-04-30 19:23 | 23.38739 | -74.63434 | 35011 ft | 486 kts | 116° |
| 2026-04-30 19:24 | 23.34004 | -74.53667 | 35003 ft | 486 kts | 116° |
| 2026-04-30 19:25 | 23.26104 | -74.37408 | 35007 ft | 485 kts | 116° |
| 2026-04-30 19:26 | 23.19819 | -74.24539 | 35009 ft | 482 kts | 116° |
| 2026-04-30 19:27 | 23.15118 | -74.14912 | 35006 ft | 480 kts | 116° |
| 2026-04-30 19:28 | 23.10420 | -74.05313 | 35004 ft | 479 kts | 116° |
| 2026-04-30 19:29 | 23.04143 | -73.92544 | 34997 ft | 479 kts | 116° |
| 2026-04-30 19:30 | 22.97879 | -73.79801 | 34998 ft | 478 kts | 116° |
| 2026-04-30 19:31 | 22.91603 | -73.67077 | 34998 ft | 478 kts | 116° |
| 2026-04-30 19:31 | 22.86887 | -73.57552 | 35002 ft | 478 kts | 117° |
| 2026-04-30 19:32 | 22.83741 | -73.51202 | 34997 ft | 478 kts | 117° |
| 2026-04-30 19:32 | 22.80598 | -73.44854 | 34995 ft | 478 kts | 117° |
| 2026-04-30 19:33 | 22.77445 | -73.38511 | 34996 ft | 478 kts | 117° |
| 2026-04-30 19:33 | 22.74310 | -73.32211 | 34998 ft | 478 kts | 117° |
| 2026-04-30 19:34 | 22.71158 | -73.25875 | 34997 ft | 478 kts | 118° |
| 2026-04-30 19:35 | 22.66420 | -73.16370 | 34998 ft | 478 kts | 118° |
| 2026-04-30 19:35 | 22.63257 | -73.10034 | 34998 ft | 478 kts | 118° |
| 2026-04-30 19:36 | 22.60091 | -73.03701 | 34994 ft | 478 kts | 118° |
| 2026-04-30 19:36 | 22.55338 | -72.94205 | 35000 ft | 478 kts | 119° |
| 2026-04-30 19:37 | 22.52165 | -72.87873 | 34995 ft | 479 kts | 119° |
| 2026-04-30 19:37 | 22.48985 | -72.81540 | 34993 ft | 479 kts | 119° |
| 2026-04-30 19:38 | 22.45797 | -72.75209 | 34983 ft | 480 kts | 120° |
| 2026-04-30 19:38 | 22.42611 | -72.68867 | 34985 ft | 480 kts | 120° |
| 2026-04-30 19:39 | 22.39421 | -72.62521 | 34988 ft | 481 kts | 120° |
| 2026-04-30 19:39 | 22.36218 | -72.56184 | 34994 ft | 481 kts | 121° |
| 2026-04-30 19:40 | 22.33007 | -72.49852 | 34994 ft | 481 kts | 121° |
| 2026-04-30 19:40 | 22.29818 | -72.43558 | 34995 ft | 481 kts | 121° |
| 2026-04-30 19:41 | 22.26590 | -72.37182 | 34996 ft | 481 kts | 121° |
| 2026-04-30 19:41 | 22.23401 | -72.30888 | 34997 ft | 481 kts | 121° |
| 2026-04-30 19:42 | 22.20190 | -72.24558 | 34993 ft | 481 kts | 121° |
| 2026-04-30 19:42 | 22.16969 | -72.18227 | 34995 ft | 481 kts | 121° |
| 2026-04-30 19:43 | 22.13747 | -72.11898 | 34998 ft | 481 kts | 121° |
| 2026-04-30 19:44 | 22.08910 | -72.02410 | 34985 ft | 482 kts | 121° |
| 2026-04-30 19:44 | 22.05679 | -71.96077 | 34976 ft | 482 kts | 121° |
| 2026-04-30 19:45 | 22.02440 | -71.89736 | 34977 ft | 483 kts | 121° |
| 2026-04-30 19:45 | 21.99185 | -71.83385 | 34976 ft | 485 kts | 121° |
| 2026-04-30 19:46 | 21.96471 | -71.78095 | 34978 ft | 485 kts | 121° |
| 2026-04-30 19:46 | 21.93210 | -71.71724 | 34984 ft | 486 kts | 121° |
| 2026-04-30 19:47 | 21.89939 | -71.65350 | 35002 ft | 486 kts | 121° |
| 2026-04-30 19:47 | 21.86655 | -71.58985 | 34997 ft | 486 kts | 121° |
| 2026-04-30 19:48 | 21.83381 | -71.52616 | 34983 ft | 486 kts | 122° |
| 2026-04-30 19:48 | 21.80102 | -71.46241 | 34983 ft | 487 kts | 122° |
| 2026-04-30 19:49 | 21.76814 | -71.39872 | 34996 ft | 487 kts | 122° |
| 2026-04-30 19:49 | 21.71865 | -71.30310 | 34994 ft | 488 kts | 122° |
| 2026-04-30 19:50 | 21.68569 | -71.23934 | 34984 ft | 488 kts | 122° |
| 2026-04-30 19:50 | 21.65266 | -71.17555 | 34967 ft | 489 kts | 122° |
| 2026-04-30 19:51 | 21.61978 | -71.11209 | 34984 ft | 490 kts | 122° |
| 2026-04-30 19:51 | 21.58650 | -71.04825 | 34973 ft | 489 kts | 124° |
| 2026-04-30 19:52 | 21.54531 | -70.99091 | 34972 ft | 484 kts | 135° |
| 2026-04-30 19:52 | 21.50111 | -70.93630 | 34979 ft | 484 kts | 134° |
| 2026-04-30 19:53 | 21.45699 | -70.88165 | 34977 ft | 485 kts | 134° |
| 2026-04-30 19:53 | 21.41279 | -70.82696 | 34982 ft | 485 kts | 135° |
| 2026-04-30 19:54 | 21.36860 | -70.77226 | 34981 ft | 485 kts | 135° |
| 2026-04-30 19:54 | 21.32436 | -70.71764 | 34986 ft | 485 kts | 135° |
| 2026-04-30 19:55 | 21.28006 | -70.66307 | 34965 ft | 486 kts | 135° |
| 2026-04-30 19:55 | 21.23573 | -70.60839 | 34967 ft | 486 kts | 135° |
| 2026-04-30 19:56 | 21.19133 | -70.55362 | 34970 ft | 487 kts | 135° |
| 2026-04-30 19:56 | 21.14683 | -70.49889 | 34973 ft | 487 kts | 135° |
| 2026-04-30 19:57 | 21.10224 | -70.44422 | 34986 ft | 487 kts | 135° |
| 2026-04-30 19:57 | 21.05797 | -70.38988 | 34989 ft | 488 kts | 135° |
| 2026-04-30 19:58 | 21.01338 | -70.33515 | 34984 ft | 488 kts | 135° |
| 2026-04-30 19:58 | 20.96881 | -70.28042 | 34987 ft | 488 kts | 135° |
| 2026-04-30 19:59 | 20.92419 | -70.22577 | 34974 ft | 488 kts | 135° |
| 2026-04-30 20:00 | 20.85711 | -70.14396 | 34978 ft | 488 kts | 135° |
| 2026-04-30 20:00 | 20.81238 | -70.08948 | 34983 ft | 488 kts | 136° |
| 2026-04-30 20:01 | 20.74530 | -70.00769 | 34991 ft | 488 kts | 135° |
| 2026-04-30 20:01 | 20.70066 | -69.95317 | 34988 ft | 488 kts | 135° |
| 2026-04-30 20:02 | 20.63357 | -69.87151 | 34989 ft | 488 kts | 136° |
| 2026-04-30 20:03 | 20.56643 | -69.78989 | 34966 ft | 488 kts | 137° |
| 2026-04-30 20:03 | 20.52153 | -69.73543 | 34958 ft | 489 kts | 137° |
| 2026-04-30 20:04 | 20.47649 | -69.68094 | 34968 ft | 490 kts | 137° |
| 2026-04-30 20:05 | 20.40882 | -69.59903 | 34979 ft | 491 kts | 137° |
| 2026-04-30 20:05 | 20.34108 | -69.51713 | 34971 ft | 491 kts | 138° |
| 2026-04-30 20:06 | 20.29585 | -69.46250 | 34975 ft | 492 kts | 138° |
| 2026-04-30 20:06 | 20.25054 | -69.40783 | 34980 ft | 492 kts | 138° |
| 2026-04-30 20:07 | 20.20521 | -69.35321 | 34983 ft | 492 kts | 138° |
| 2026-04-30 20:08 | 20.13712 | -69.27129 | 34985 ft | 493 kts | 138° |
| 2026-04-30 20:08 | 20.09171 | -69.21664 | 34983 ft | 493 kts | 138° |
| 2026-04-30 20:09 | 20.04624 | -69.16202 | 34980 ft | 493 kts | 139° |
| 2026-04-30 20:09 | 19.97816 | -69.08050 | 34979 ft | 494 kts | 139° |
| 2026-04-30 20:10 | 19.90977 | -68.99847 | 34984 ft | 494 kts | 139° |
| 2026-04-30 20:11 | 19.84204 | -68.91567 | 34984 ft | 497 kts | 135° |
| 2026-04-30 20:11 | 19.79959 | -68.85755 | 34967 ft | 499 kts | 134° |
| 2026-04-30 20:12 | 19.73680 | -68.76959 | 34975 ft | 498 kts | 134° |
| 2026-04-30 20:13 | 19.69426 | -68.71171 | 34980 ft | 497 kts | 135° |
| 2026-04-30 20:13 | 19.65151 | -68.65404 | 34980 ft | 497 kts | 135° |
| 2026-04-30 20:14 | 19.60889 | -68.59632 | 34978 ft | 497 kts | 135° |
| 2026-04-30 20:14 | 19.56636 | -68.53849 | 34978 ft | 497 kts | 134° |
| 2026-04-30 20:15 | 19.52380 | -68.48079 | 34978 ft | 497 kts | 135° |
| 2026-04-30 20:15 | 19.48118 | -68.42318 | 34977 ft | 496 kts | 135° |
| 2026-04-30 20:16 | 19.43853 | -68.36567 | 34964 ft | 496 kts | 134° |
| 2026-04-30 20:16 | 19.39622 | -68.30865 | 34978 ft | 495 kts | 134° |
| 2026-04-30 20:17 | 19.35373 | -68.25127 | 34983 ft | 495 kts | 134° |
| 2026-04-30 20:17 | 19.31132 | -68.19388 | 34985 ft | 495 kts | 134° |
| 2026-04-30 20:18 | 19.26876 | -68.13661 | 34974 ft | 495 kts | 134° |
| 2026-04-30 20:18 | 19.22615 | -68.07943 | 34974 ft | 495 kts | 134° |
| 2026-04-30 20:19 | 19.18346 | -68.02225 | 34977 ft | 495 kts | 134° |
| 2026-04-30 20:19 | 19.14077 | -67.96504 | 34977 ft | 495 kts | 134° |
| 2026-04-30 20:20 | 19.09817 | -67.90778 | 34980 ft | 495 kts | 134° |
| 2026-04-30 20:20 | 19.05551 | -67.85052 | 34959 ft | 496 kts | 134° |
| 2026-04-30 20:21 | 19.01268 | -67.79341 | 34966 ft | 495 kts | 135° |
| 2026-04-30 20:21 | 18.96774 | -67.73855 | 34969 ft | 493 kts | 139° |
| 2026-04-30 20:22 | 18.92121 | -67.68553 | 34971 ft | 492 kts | 139° |
| 2026-04-30 20:22 | 18.87473 | -67.63250 | 34967 ft | 492 kts | 139° |
| 2026-04-30 20:23 | 18.82877 | -67.57885 | 34971 ft | 493 kts | 138° |
| 2026-04-30 20:23 | 18.78300 | -67.52506 | 34957 ft | 493 kts | 138° |
| 2026-04-30 20:24 | 18.73739 | -67.47163 | 34950 ft | 494 kts | 138° |
| 2026-04-30 20:24 | 18.69130 | -67.41788 | 34940 ft | 494 kts | 139° |
| 2026-04-30 20:25 | 18.62200 | -67.33726 | 34961 ft | 495 kts | 139° |
| 2026-04-30 20:26 | 18.55265 | -67.25654 | 34976 ft | 495 kts | 139° |
| 2026-04-30 20:26 | 18.48324 | -67.17579 | 34973 ft | 496 kts | 139° |
| 2026-04-30 20:27 | 18.39046 | -67.06822 | 34976 ft | 496 kts | 139° |
| 2026-04-30 20:28 | 18.29763 | -66.96060 | 34968 ft | 497 kts | 139° |
| 2026-04-30 20:30 | 18.18133 | -66.82622 | 34965 ft | 497 kts | 139° |
| 2026-04-30 20:31 | 18.04149 | -66.66490 | 34948 ft | 498 kts | 138° |
| 2026-04-30 20:32 | 17.92481 | -66.53060 | 34946 ft | 498 kts | 139° |
| 2026-04-30 20:33 | 17.85450 | -66.44983 | 34937 ft | 500 kts | 139° |
| 2026-04-30 20:34 | 17.78417 | -66.36926 | 34953 ft | 502 kts | 139° |
| 2026-04-30 20:35 | 17.71349 | -66.28828 | 34952 ft | 502 kts | 139° |
| 2026-04-30 20:35 | 17.64278 | -66.20720 | 34949 ft | 502 kts | 139° |
| 2026-04-30 20:36 | 17.60325 | -66.16195 | 34953 ft | 502 kts | 139° |
| 2026-04-30 20:37 | 17.53230 | -66.08103 | 34941 ft | 503 kts | 139° |
| 2026-04-30 20:37 | 17.48529 | -66.02746 | 34944 ft | 503 kts | 138° |
| 2026-04-30 20:38 | 17.43800 | -65.97344 | 34950 ft | 503 kts | 138° |
| 2026-04-30 20:38 | 17.39062 | -65.91945 | 34951 ft | 503 kts | 139° |
| 2026-04-30 20:39 | 17.31947 | -65.83851 | 34952 ft | 504 kts | 139° |
| 2026-04-30 20:40 | 17.24830 | -65.75753 | 34951 ft | 504 kts | 139° |
| 2026-04-30 20:40 | 17.20085 | -65.70362 | 34953 ft | 503 kts | 139° |
| 2026-04-30 20:41 | 17.13000 | -65.62325 | 34964 ft | 499 kts | 139° |
| 2026-04-30 20:41 | 17.08302 | -65.57005 | 34962 ft | 497 kts | 138° |
| 2026-04-30 20:42 | 17.03625 | -65.51708 | 34962 ft | 495 kts | 138° |
| 2026-04-30 20:43 | 16.96631 | -65.43799 | 34966 ft | 493 kts | 138° |
| 2026-04-30 20:43 | 16.91979 | -65.38538 | 34961 ft | 493 kts | 138° |
| 2026-04-30 20:44 | 16.85001 | -65.30664 | 34962 ft | 492 kts | 139° |
| 2026-04-30 20:45 | 16.75717 | -65.20189 | 34957 ft | 490 kts | 138° |
| 2026-04-30 20:45 | 16.71085 | -65.14971 | 34958 ft | 490 kts | 138° |
| 2026-04-30 20:46 | 16.61855 | -65.04595 | 34950 ft | 489 kts | 138° |
| 2026-04-30 20:47 | 16.54913 | -64.96803 | 34951 ft | 489 kts | 138° |
| 2026-04-30 20:48 | 16.47978 | -64.89018 | 34950 ft | 488 kts | 138° |
| 2026-04-30 20:48 | 16.43363 | -64.83835 | 34951 ft | 488 kts | 138° |
| 2026-04-30 20:49 | 16.38737 | -64.78660 | 34949 ft | 488 kts | 138° |
| 2026-04-30 20:50 | 16.31804 | -64.70904 | 34950 ft | 488 kts | 138° |
| 2026-04-30 20:50 | 16.27180 | -64.65735 | 34950 ft | 488 kts | 138° |
| 2026-04-30 20:51 | 16.22559 | -64.60567 | 34953 ft | 488 kts | 138° |
| 2026-04-30 20:51 | 16.15617 | -64.52827 | 34952 ft | 488 kts | 138° |
| 2026-04-30 20:52 | 16.10990 | -64.47667 | 34951 ft | 488 kts | 138° |
| 2026-04-30 20:53 | 16.04091 | -64.39971 | 34952 ft | 487 kts | 138° |
| 2026-04-30 20:53 | 15.99465 | -64.34839 | 34953 ft | 486 kts | 138° |
| 2026-04-30 20:54 | 15.92555 | -64.27147 | 34961 ft | 484 kts | 138° |
| 2026-04-30 20:55 | 15.85663 | -64.19485 | 34954 ft | 483 kts | 138° |
| 2026-04-30 20:55 | 15.81070 | -64.14388 | 34953 ft | 483 kts | 138° |
| 2026-04-30 20:56 | 15.74182 | -64.06758 | 34954 ft | 483 kts | 138° |
| 2026-04-30 20:57 | 15.67297 | -63.99122 | 34931 ft | 484 kts | 137° |
| 2026-04-30 20:57 | 15.62688 | -63.94028 | 34931 ft | 484 kts | 137° |
| 2026-04-30 20:58 | 15.55772 | -63.86384 | 34937 ft | 485 kts | 137° |
| 2026-04-30 20:58 | 15.51168 | -63.81298 | 34936 ft | 485 kts | 137° |
| 2026-04-30 20:59 | 15.44242 | -63.73647 | 34939 ft | 485 kts | 137° |
| 2026-04-30 21:00 | 15.35017 | -63.63466 | 34934 ft | 486 kts | 137° |
| 2026-04-30 21:01 | 15.28057 | -63.55811 | 34942 ft | 487 kts | 137° |
| 2026-04-30 21:02 | 15.21086 | -63.48152 | 34948 ft | 487 kts | 137° |
| 2026-04-30 21:02 | 15.16444 | -63.43038 | 34944 ft | 487 kts | 137° |
| 2026-04-30 21:03 | 15.11797 | -63.37937 | 34940 ft | 487 kts | 137° |
| 2026-04-30 21:03 | 15.07141 | -63.32835 | 34943 ft | 487 kts | 137° |
| 2026-04-30 21:04 | 15.02461 | -63.27768 | 34942 ft | 485 kts | 141° |
| 2026-04-30 21:04 | 14.94025 | -63.22477 | 34938 ft | 469 kts | 163° |
| 2026-04-30 21:05 | 14.87983 | -63.19936 | 34934 ft | 469 kts | 163° |
| 2026-04-30 21:05 | 14.81941 | -63.17387 | 34940 ft | 469 kts | 163° |
| 2026-04-30 21:06 | 14.75900 | -63.14833 | 34937 ft | 469 kts | 163° |
| 2026-04-30 21:06 | 14.69856 | -63.12297 | 34934 ft | 469 kts | 163° |
| 2026-04-30 21:07 | 14.63813 | -63.09757 | 34933 ft | 469 kts | 162° |
| 2026-04-30 21:07 | 14.57768 | -63.07208 | 34931 ft | 469 kts | 162° |
| 2026-04-30 21:08 | 14.51717 | -63.04666 | 34933 ft | 469 kts | 162° |
| 2026-04-30 21:08 | 14.45666 | -63.02123 | 34933 ft | 469 kts | 162° |
| 2026-04-30 21:09 | 14.39617 | -62.99587 | 34934 ft | 469 kts | 162° |
| 2026-04-30 21:09 | 14.33569 | -62.97044 | 34933 ft | 469 kts | 162° |
| 2026-04-30 21:10 | 14.27561 | -62.94519 | 34943 ft | 469 kts | 161° |
| 2026-04-30 21:10 | 14.21516 | -62.91987 | 34943 ft | 469 kts | 161° |
| 2026-04-30 21:11 | 14.15477 | -62.89460 | 34946 ft | 468 kts | 161° |
| 2026-04-30 21:11 | 14.09438 | -62.86937 | 34942 ft | 468 kts | 161° |
| 2026-04-30 21:12 | 14.03403 | -62.84406 | 34939 ft | 468 kts | 161° |
| 2026-04-30 21:12 | 13.97368 | -62.81877 | 34935 ft | 468 kts | 162° |
| 2026-04-30 21:13 | 13.91327 | -62.79361 | 34934 ft | 469 kts | 162° |
| 2026-04-30 21:13 | 13.85281 | -62.76841 | 34931 ft | 469 kts | 162° |
| 2026-04-30 21:14 | 13.79232 | -62.74314 | 34924 ft | 470 kts | 162° |
| 2026-04-30 21:14 | 13.73169 | -62.71782 | 34921 ft | 471 kts | 162° |
| 2026-04-30 21:15 | 13.67084 | -62.69247 | 34918 ft | 472 kts | 162° |
| 2026-04-30 21:15 | 13.60995 | -62.66714 | 34936 ft | 472 kts | 162° |
| 2026-04-30 21:16 | 13.54908 | -62.64170 | 34933 ft | 472 kts | 162° |
| 2026-04-30 21:16 | 13.48825 | -62.61633 | 34934 ft | 472 kts | 162° |
| 2026-04-30 21:17 | 13.42740 | -62.59095 | 34939 ft | 472 kts | 162° |
| 2026-04-30 21:17 | 13.36655 | -62.56569 | 34938 ft | 472 kts | 162° |
| 2026-04-30 21:18 | 13.30571 | -62.54041 | 34938 ft | 472 kts | 162° |
| 2026-04-30 21:18 | 13.24489 | -62.51521 | 34934 ft | 471 kts | 161° |
| 2026-04-30 21:19 | 13.18419 | -62.48997 | 34932 ft | 471 kts | 161° |
| 2026-04-30 21:19 | 13.12347 | -62.46474 | 34933 ft | 471 kts | 161° |
| 2026-04-30 21:20 | 13.06276 | -62.43960 | 34936 ft | 471 kts | 161° |
| 2026-04-30 21:20 | 13.00203 | -62.41443 | 34936 ft | 471 kts | 161° |
| 2026-04-30 21:21 | 12.94131 | -62.38926 | 34936 ft | 471 kts | 161° |
| 2026-04-30 21:22 | 12.85066 | -62.35171 | 34934 ft | 471 kts | 161° |
| 2026-04-30 21:23 | 12.73902 | -62.30559 | 34938 ft | 471 kts | 161° |
| 2026-04-30 21:23 | 12.64792 | -62.26781 | 34937 ft | 471 kts | 161° |
| 2026-04-30 21:24 | 12.58719 | -62.24279 | 34930 ft | 470 kts | 161° |
| 2026-04-30 21:24 | 12.52651 | -62.21781 | 34932 ft | 470 kts | 161° |
| 2026-04-30 21:25 | 12.43549 | -62.18019 | 34927 ft | 470 kts | 161° |
| 2026-04-30 21:26 | 12.34448 | -62.14242 | 34929 ft | 471 kts | 160° |
| 2026-04-30 21:27 | 12.25583 | -62.09836 | 34925 ft | 473 kts | 156° |
| 2026-04-30 21:27 | 12.19727 | -62.06745 | 34928 ft | 473 kts | 156° |
| 2026-04-30 21:28 | 12.10893 | -62.02252 | 34927 ft | 472 kts | 158° |
| 2026-04-30 21:29 | 12.02180 | -61.97626 | 34927 ft | 478 kts | 142° |
| 2026-04-30 21:29 | 11.98613 | -61.88754 | 34916 ft | 453 kts | 83° |
| 2026-04-30 21:30 | 11.99640 | -61.82447 | 34892 ft | 450 kts | 84° |
| 2026-04-30 21:31 | 11.96168 | -61.74231 | 34895 ft | 430 kts | 152° |
| 2026-04-30 21:31 | 11.90634 | -61.72999 | 34915 ft | 406 kts | 198° |
| 2026-04-30 21:32 | 11.86203 | -61.76042 | 34920 ft | 386 kts | 243° |
| 2026-04-30 21:32 | 11.85310 | -61.78593 | 34918 ft | 383 kts | 266° |
| 2026-04-30 21:32 | 11.85539 | -61.81280 | 34918 ft | 384 kts | 289° |
| 2026-04-30 21:32 | 11.86852 | -61.83655 | 34917 ft | 391 kts | 311° |
| 2026-04-30 21:33 | 11.89029 | -61.85347 | 34924 ft | 400 kts | 327° |
| 2026-04-30 21:33 | 11.93922 | -61.88114 | 34918 ft | 403 kts | 326° |
| 2026-04-30 21:33 | 11.96207 | -61.89730 | 34925 ft | 397 kts | 314° |
| 2026-04-30 21:34 | 11.98084 | -61.91770 | 34925 ft | 393 kts | 303° |
| 2026-04-30 21:34 | 12.00294 | -61.96766 | 34914 ft | 387 kts | 277° |
| 2026-04-30 21:34 | 12.00446 | -61.99497 | 34917 ft | 386 kts | 267° |
| 2026-04-30 21:35 | 12.00298 | -62.04983 | 34912 ft | 387 kts | 268° |
| 2026-04-30 21:35 | 11.99988 | -62.07700 | 34908 ft | 386 kts | 254° |
| 2026-04-30 21:35 | 11.98916 | -62.10205 | 34911 ft | 387 kts | 237° |
| 2026-04-30 21:36 | 11.97128 | -62.12264 | 34904 ft | 392 kts | 220° |
| 2026-04-30 21:36 | 11.94752 | -62.13672 | 34911 ft | 401 kts | 202° |
| 2026-04-30 21:37 | 11.86509 | -62.12586 | 34911 ft | 429 kts | 145° |
| 2026-04-30 21:37 | 11.84417 | -62.10391 | 34909 ft | 437 kts | 124° |
| 2026-04-30 21:37 | 11.83184 | -62.07596 | 34910 ft | 442 kts | 103° |
| 2026-04-30 21:37 | 11.82953 | -62.04478 | 34912 ft | 443 kts | 81° |
| 2026-04-30 21:38 | 11.83785 | -62.01472 | 34915 ft | 441 kts | 59° |
| 2026-04-30 21:38 | 11.85561 | -61.98964 | 34916 ft | 435 kts | 38° |
| 2026-04-30 21:38 | 11.88020 | -61.97253 | 34915 ft | 426 kts | 19° |
| 2026-04-30 21:38 | 11.90772 | -61.96131 | 34914 ft | 426 kts | 16° |
| 2026-04-30 21:39 | 11.96337 | -61.94019 | 34915 ft | 431 kts | 26° |
| 2026-04-30 21:39 | 11.98712 | -61.92137 | 34924 ft | 438 kts | 48° |
| 2026-04-30 21:39 | 12.00289 | -61.89474 | 34919 ft | 443 kts | 71° |
| 2026-04-30 21:40 | 12.00818 | -61.86390 | 34892 ft | 444 kts | 94° |
| 2026-04-30 21:40 | 12.00220 | -61.83325 | 34895 ft | 440 kts | 116° |
| 2026-04-30 21:40 | 11.98591 | -61.80726 | 34892 ft | 433 kts | 139° |
| 2026-04-30 21:40 | 11.96187 | -61.78965 | 34894 ft | 422 kts | 162° |
| 2026-04-30 21:41 | 11.93390 | -61.78283 | 34914 ft | 410 kts | 185° |
| 2026-04-30 21:41 | 11.90635 | -61.78752 | 34920 ft | 398 kts | 208° |
| 2026-04-30 21:41 | 11.88320 | -61.80222 | 34926 ft | 391 kts | 225° |
| 2026-04-30 21:41 | 11.86473 | -61.82242 | 34921 ft | 389 kts | 236° |
| 2026-04-30 21:42 | 11.83739 | -61.86978 | 34916 ft | 389 kts | 238° |
| 2026-04-30 21:42 | 11.81991 | -61.89092 | 34919 ft | 393 kts | 226° |
| 2026-04-30 21:42 | 11.80038 | -61.91039 | 34915 ft | 392 kts | 231° |
| 2026-04-30 21:43 | 11.78500 | -61.93300 | 34905 ft | 386 kts | 249° |
| 2026-04-30 21:43 | 11.77821 | -61.95925 | 34914 ft | 383 kts | 265° |
| 2026-04-30 21:43 | 11.77627 | -62.01377 | 34913 ft | 385 kts | 270° |
| 2026-04-30 21:44 | 11.78224 | -62.06784 | 34909 ft | 387 kts | 288° |
| 2026-04-30 21:44 | 11.79339 | -62.09287 | 34909 ft | 389 kts | 299° |
| 2026-04-30 21:44 | 11.80958 | -62.11510 | 34909 ft | 393 kts | 311° |
| 2026-04-30 21:45 | 11.83032 | -62.13293 | 34912 ft | 399 kts | 324° |
| 2026-04-30 21:45 | 11.85543 | -62.14536 | 34915 ft | 406 kts | 339° |
| 2026-04-30 21:45 | 11.88326 | -62.15103 | 34915 ft | 413 kts | 353° |
| 2026-04-30 21:45 | 11.91219 | -62.14918 | 34915 ft | 421 kts | 8° |
| 2026-04-30 21:46 | 11.94047 | -62.13937 | 34914 ft | 429 kts | 24° |
| 2026-04-30 21:46 | 11.96503 | -62.12252 | 34915 ft | 436 kts | 40° |
| 2026-04-30 21:46 | 11.98500 | -62.09911 | 34919 ft | 441 kts | 57° |
| 2026-04-30 21:46 | 11.99825 | -62.07079 | 34914 ft | 445 kts | 73° |
| 2026-04-30 21:47 | 12.00389 | -62.03977 | 34929 ft | 446 kts | 84° |
| 2026-04-30 21:47 | 12.00627 | -62.00811 | 34919 ft | 447 kts | 88° |
| 2026-04-30 21:47 | 12.00417 | -61.94490 | 34912 ft | 444 kts | 108° |
| 2026-04-30 21:48 | 11.99289 | -61.91574 | 34924 ft | 441 kts | 122° |
| 2026-04-30 21:48 | 11.97540 | -61.89034 | 34926 ft | 436 kts | 136° |
| 2026-04-30 21:48 | 11.95283 | -61.87008 | 34891 ft | 430 kts | 152° |
| 2026-04-30 21:48 | 11.92637 | -61.85666 | 34922 ft | 422 kts | 167° |
| 2026-04-30 21:49 | 11.89794 | -61.85086 | 34920 ft | 414 kts | 182° |
| 2026-04-30 21:49 | 11.86954 | -61.85266 | 34920 ft | 406 kts | 197° |
| 2026-04-30 21:49 | 11.84291 | -61.86138 | 34921 ft | 400 kts | 210° |
| 2026-04-30 21:49 | 11.81944 | -61.87607 | 34917 ft | 394 kts | 223° |
| 2026-04-30 21:50 | 11.80026 | -61.89572 | 34919 ft | 389 kts | 236° |
| 2026-04-30 21:50 | 11.78633 | -61.91915 | 34924 ft | 386 kts | 249° |